Ashland, Kentucky
Current Conditions -  °F | °C
As of 2:51 AM on Monday 26 Jan 2015 (Local Time) from KHTS Reporting Station
Haze Haze  
Wind Chill:   Ceiling: 3300
Heat Index:   Visibility: 3mi
Dew Point:   Wind: 3mph
Humidity: 100%   Direction: 40°NE
Pressure: 29.63"   Gusts: NA
Location:  38.48°N, 82.64°W
Report Text: KHTS 260751Z 04003KT 3SM BR OVC033 04/04 A2963 RMK AO2 SLP035 T00390039
Loading
Personal Weather Stations






























Interactive Weather Map New forecast layout! Learn more

10-Day Weather Forecast

Advertisements
Track Severe Weather on mobile